Kezdőlap
METAR-TAF:

METAR-TAF

Repülőterek :

Zonguldak, Törökország

földrajzi szélesség: 41-27N, földrajzi hosszúság: 031-48E, magasság: 136 m

Jelenlegi meteorológiai megfigyelések

A jelentés 8 órával és 0 perccel ezelõtt készült, 12:50 UTC
Északnyugati szél 9 kt
Hőmérséklet 8°C
Páratartalom 57%
Légköri nyomás 1026 hPa
Látótávolság 10 km, vagy több
Kevés felhő 3500 lábon

METAR: LTAS 171250Z 31009KT 9999 FEW035 08/00 Q1026

Idő: 23:50 (20:50 UTC)

Előrejelzés

A jelentés 7 órával és 10 perccel ezelõtt készült, 13:40 UTC
Az előrejelzés 17-én 15 óra UTC és 17-én 24 óra UTC között érvényes
Különbözõ irányokból fújó szél 2 kt
Látótávolság 10 km, vagy több
Kevés felhő 3500 lábon

TAF: LTAS 171340Z 1715/1724 VRB02KT 9999 FEW035

Meteorológiai megfigyelések és előrejelzések több, mint 4000 repülőtéren (METAR és TAF jelentéseket).

A térképen piros és sárga pontok jelzik az elérhető meteorológiai állomásokat.

Mozgassa az egeret a pont fölött, hogy megjelenjen az állomás neve.

Azután kattintson az időjárási megfigyelések és előrejelzések megtekintéséhez.

A térkép megváltoztatása: kattintson a fekete keresztel jelölt zöld gombra ráközelítéshez, a vonallal jelölt zöld gombra távolításhoz, vagy a zöld nyilakra a szomszédos térképek eléréséhez.


METAR-TAF: